sensor_id;sensor_type;location;lat;lon;timestamp;P1;durP1;ratioP1;P2;durP2;ratioP2
72649;SDS011;61467;50.674;4.618;2023-05-10T00:05:37;15.93;;;5.60;;
72649;SDS011;61467;50.674;4.618;2023-05-10T00:08:49;16.40;;;6.45;;
72649;SDS011;61467;50.674;4.618;2023-05-10T00:15:05;14.68;;;5.60;;
72649;SDS011;61467;50.674;4.618;2023-05-10T00:26:49;11.90;;;4.95;;
72649;SDS011;61467;50.674;4.618;2023-05-10T00:29:59;11.95;;;5.25;;
72649;SDS011;61467;50.674;4.618;2023-05-10T00:33:05;16.10;;;5.40;;
72649;SDS011;61467;50.674;4.618;2023-05-10T01:47:24;16.55;;;6.68;;
72649;SDS011;61467;50.674;4.618;2023-05-10T01:50:31;19.02;;;6.45;;
72649;SDS011;61467;50.674;4.618;2023-05-10T01:53:26;15.55;;;7.38;;
72649;SDS011;61467;50.674;4.618;2023-05-10T01:56:28;18.63;;;7.17;;
72649;SDS011;61467;50.674;4.618;2023-05-10T01:59:23;16.90;;;7.60;;
72649;SDS011;61467;50.674;4.618;2023-05-10T02:02:33;16.42;;;6.65;;
72649;SDS011;61467;50.674;4.618;2023-05-10T02:05:30;14.23;;;6.90;;
72649;SDS011;61467;50.674;4.618;2023-05-10T02:08:36;18.08;;;6.70;;
72649;SDS011;61467;50.674;4.618;2023-05-10T02:11:40;14.37;;;6.33;;
72649;SDS011;61467;50.674;4.618;2023-05-10T02:14:28;15.27;;;6.15;;
72649;SDS011;61467;50.674;4.618;2023-05-10T02:20:38;13.68;;;6.30;;
72649;SDS011;61467;50.674;4.618;2023-05-10T02:23:42;14.00;;;6.30;;
72649;SDS011;61467;50.674;4.618;2023-05-10T02:26:32;13.00;;;6.17;;
72649;SDS011;61467;50.674;4.618;2023-05-10T02:29:42;14.80;;;6.30;;
72649;SDS011;61467;50.674;4.618;2023-05-10T02:32:45;16.02;;;6.55;;
72649;SDS011;61467;50.674;4.618;2023-05-10T02:35:53;15.32;;;6.65;;
72649;SDS011;61467;50.674;4.618;2023-05-10T02:38:43;14.18;;;6.15;;
72649;SDS011;61467;50.674;4.618;2023-05-10T02:41:52;14.63;;;6.83;;
72649;SDS011;61467;50.674;4.618;2023-05-10T02:44:56;14.00;;;6.22;;
72649;SDS011;61467;50.674;4.618;2023-05-10T02:51:16;11.85;;;6.15;;
72649;SDS011;61467;50.674;4.618;2023-05-10T03:00:17;17.55;;;6.38;;
72649;SDS011;61467;50.674;4.618;2023-05-10T03:03:24;12.68;;;6.20;;
72649;SDS011;61467;50.674;4.618;2023-05-10T03:06:19;13.02;;;5.97;;
72649;SDS011;61467;50.674;4.618;2023-05-10T03:09:28;14.82;;;6.55;;
72649;SDS011;61467;50.674;4.618;2023-05-10T03:12:38;14.37;;;6.47;;
72649;SDS011;61467;50.674;4.618;2023-05-10T03:15:51;15.30;;;7.18;;
72649;SDS011;61467;50.674;4.618;2023-05-10T04:57:33;13.73;;;5.70;;
72649;SDS011;61467;50.674;4.618;2023-05-10T05:00:25;15.63;;;5.68;;
72649;SDS011;61467;50.674;4.618;2023-05-10T05:03:14;14.68;;;6.00;;
72649;SDS011;61467;50.674;4.618;2023-05-10T05:06:18;11.77;;;4.95;;
72649;SDS011;61467;50.674;4.618;2023-05-10T05:15:40;12.18;;;4.50;;
72649;SDS011;61467;50.674;4.618;2023-05-10T05:18:44;8.80;;;3.40;;
72649;SDS011;61467;50.674;4.618;2023-05-10T05:21:48;7.75;;;2.58;;
72649;SDS011;61467;50.674;4.618;2023-05-10T05:24:52;5.97;;;2.08;;
72649;SDS011;61467;50.674;4.618;2023-05-10T05:30:32;7.07;;;2.17;;
72649;SDS011;61467;50.674;4.618;2023-05-10T05:33:43;5.95;;;2.08;;
72649;SDS011;61467;50.674;4.618;2023-05-10T06:09:11;6.15;;;1.83;;
72649;SDS011;61467;50.674;4.618;2023-05-10T06:12:15;5.37;;;1.70;;
72649;SDS011;61467;50.674;4.618;2023-05-10T06:15:15;4.88;;;1.45;;
72649;SDS011;61467;50.674;4.618;2023-05-10T06:21:45;6.70;;;1.75;;
72649;SDS011;61467;50.674;4.618;2023-05-10T06:24:45;6.90;;;1.98;;
72649;SDS011;61467;50.674;4.618;2023-05-10T06:27:43;7.33;;;2.77;;
72649;SDS011;61467;50.674;4.618;2023-05-10T06:30:40;8.10;;;2.08;;
72649;SDS011;61467;50.674;4.618;2023-05-10T06:33:44;6.55;;;2.08;;
72649;SDS011;61467;50.674;4.618;2023-05-10T06:39:29;6.95;;;2.15;;
72649;SDS011;61467;50.674;4.618;2023-05-10T06:45:33;8.05;;;2.00;;
72649;SDS011;61467;50.674;4.618;2023-05-10T06:48:27;6.85;;;2.15;;
72649;SDS011;61467;50.674;4.618;2023-05-10T06:51:36;6.18;;;2.10;;
72649;SDS011;61467;50.674;4.618;2023-05-10T06:54:39;7.00;;;2.22;;
72649;SDS011;61467;50.674;4.618;2023-05-10T06:57:31;6.43;;;2.13;;
72649;SDS011;61467;50.674;4.618;2023-05-10T07:00:30;5.95;;;2.17;;
72649;SDS011;61467;50.674;4.618;2023-05-10T07:03:22;6.78;;;2.28;;
72649;SDS011;61467;50.674;4.618;2023-05-10T07:06:26;6.68;;;2.25;;
72649;SDS011;61467;50.674;4.618;2023-05-10T07:09:30;7.63;;;2.35;;
72649;SDS011;61467;50.674;4.618;2023-05-10T07:12:30;6.17;;;2.27;;
72649;SDS011;61467;50.674;4.618;2023-05-10T07:19:04;6.90;;;2.47;;
72649;SDS011;61467;50.674;4.618;2023-05-10T07:22:07;6.53;;;2.45;;
72649;SDS011;61467;50.674;4.618;2023-05-10T07:25:14;6.45;;;2.83;;
72649;SDS011;61467;50.674;4.618;2023-05-10T07:28:17;8.43;;;3.10;;
72649;SDS011;61467;50.674;4.618;2023-05-10T07:31:17;7.68;;;2.20;;
72649;SDS011;61467;50.674;4.618;2023-05-10T07:34:13;6.82;;;2.47;;
72649;SDS011;61467;50.674;4.618;2023-05-10T07:37:05;8.30;;;2.60;;
72649;SDS011;61467;50.674;4.618;2023-05-10T07:40:12;8.02;;;2.50;;
72649;SDS011;61467;50.674;4.618;2023-05-10T07:46:34;6.45;;;1.85;;
72649;SDS011;61467;50.674;4.618;2023-05-10T07:49:27;6.55;;;1.90;;
72649;SDS011;61467;50.674;4.618;2023-05-10T07:52:24;6.55;;;1.80;;
72649;SDS011;61467;50.674;4.618;2023-05-10T07:55:30;5.43;;;1.80;;
72649;SDS011;61467;50.674;4.618;2023-05-10T07:58:20;6.73;;;1.80;;
72649;SDS011;61467;50.674;4.618;2023-05-10T08:01:20;5.45;;;1.75;;
72649;SDS011;61467;50.674;4.618;2023-05-10T08:04:19;5.88;;;1.92;;
72649;SDS011;61467;50.674;4.618;2023-05-10T08:07:22;5.43;;;1.90;;
72649;SDS011;61467;50.674;4.618;2023-05-10T08:10:20;7.50;;;1.73;;
72649;SDS011;61467;50.674;4.618;2023-05-10T08:13:12;7.00;;;1.40;;
72649;SDS011;61467;50.674;4.618;2023-05-10T08:16:08;4.90;;;1.30;;
72649;SDS011;61467;50.674;4.618;2023-05-10T08:22:15;5.28;;;1.60;;
72649;SDS011;61467;50.674;4.618;2023-05-10T08:25:23;5.50;;;1.73;;
72649;SDS011;61467;50.674;4.618;2023-05-10T08:28:22;5.63;;;1.63;;
72649;SDS011;61467;50.674;4.618;2023-05-10T08:31:03;4.97;;;1.20;;
72649;SDS011;61467;50.674;4.618;2023-05-10T08:34:08;4.25;;;1.25;;
72649;SDS011;61467;50.674;4.618;2023-05-10T08:37:14;5.07;;;1.40;;
72649;SDS011;61467;50.674;4.618;2023-05-10T08:40:15;4.38;;;1.40;;
72649;SDS011;61467;50.674;4.618;2023-05-10T08:43:15;4.00;;;1.40;;
72649;SDS011;61467;50.674;4.618;2023-05-10T08:46:12;5.13;;;1.42;;
72649;SDS011;61467;50.674;4.618;2023-05-10T08:49:22;5.35;;;1.45;;
72649;SDS011;61467;50.674;4.618;2023-05-10T08:52:37;4.57;;;1.13;;
72649;SDS011;61467;50.674;4.618;2023-05-10T08:55:48;4.38;;;1.33;;
72649;SDS011;61467;50.674;4.618;2023-05-10T08:58:48;4.87;;;1.47;;
72649;SDS011;61467;50.674;4.618;2023-05-10T09:01:37;5.55;;;1.80;;
72649;SDS011;61467;50.674;4.618;2023-05-10T09:08:02;5.43;;;1.50;;
72649;SDS011;61467;50.674;4.618;2023-05-10T09:11:05;5.18;;;1.67;;
72649;SDS011;61467;50.674;4.618;2023-05-10T09:14:03;5.07;;;1.67;;
72649;SDS011;61467;50.674;4.618;2023-05-10T09:16:51;5.43;;;1.80;;
72649;SDS011;61467;50.674;4.618;2023-05-10T09:19:44;6.03;;;1.52;;
72649;SDS011;61467;50.674;4.618;2023-05-10T09:23:06;4.75;;;1.30;;
72649;SDS011;61467;50.674;4.618;2023-05-10T09:29:32;3.67;;;0.97;;
72649;SDS011;61467;50.674;4.618;2023-05-10T09:32:42;4.13;;;1.30;;
72649;SDS011;61467;50.674;4.618;2023-05-10T09:35:51;5.80;;;1.45;;
72649;SDS011;61467;50.674;4.618;2023-05-10T09:39:01;5.32;;;1.30;;
72649;SDS011;61467;50.674;4.618;2023-05-10T09:42:07;3.83;;;1.10;;
72649;SDS011;61467;50.674;4.618;2023-05-10T09:45:07;4.00;;;1.20;;
72649;SDS011;61467;50.674;4.618;2023-05-10T09:48:02;5.30;;;1.60;;
72649;SDS011;61467;50.674;4.618;2023-05-10T09:51:20;5.32;;;1.70;;
72649;SDS011;61467;50.674;4.618;2023-05-10T09:54:24;5.78;;;2.10;;
72649;SDS011;61467;50.674;4.618;2023-05-10T09:57:33;6.63;;;2.13;;
72649;SDS011;61467;50.674;4.618;2023-05-10T10:04:02;5.82;;;1.98;;
72649;SDS011;61467;50.674;4.618;2023-05-10T10:10:15;6.00;;;2.08;;
72649;SDS011;61467;50.674;4.618;2023-05-10T10:13:21;7.95;;;2.33;;
72649;SDS011;61467;50.674;4.618;2023-05-10T10:16:13;8.50;;;2.43;;
72649;SDS011;61467;50.674;4.618;2023-05-10T10:19:14;7.60;;;2.38;;
72649;SDS011;61467;50.674;4.618;2023-05-10T10:22:16;9.20;;;3.40;;
72649;SDS011;61467;50.674;4.618;2023-05-10T10:28:23;8.77;;;4.00;;
72649;SDS011;61467;50.674;4.618;2023-05-10T10:31:28;8.90;;;3.53;;
72649;SDS011;61467;50.674;4.618;2023-05-10T10:41:06;7.47;;;3.50;;
72649;SDS011;61467;50.674;4.618;2023-05-10T10:47:28;10.03;;;3.73;;
72649;SDS011;61467;50.674;4.618;2023-05-10T10:50:19;8.50;;;3.88;;
72649;SDS011;61467;50.674;4.618;2023-05-10T10:53:16;8.88;;;3.75;;
72649;SDS011;61467;50.674;4.618;2023-05-10T10:56:17;7.72;;;2.83;;
72649;SDS011;61467;50.674;4.618;2023-05-10T10:59:28;8.23;;;3.30;;
72649;SDS011;61467;50.674;4.618;2023-05-10T11:05:53;8.38;;;3.30;;
72649;SDS011;61467;50.674;4.618;2023-05-10T11:36:01;8.57;;;3.53;;
72649;SDS011;61467;50.674;4.618;2023-05-10T11:39:02;9.07;;;3.63;;
72649;SDS011;61467;50.674;4.618;2023-05-10T11:45:09;9.02;;;3.40;;
72649;SDS011;61467;50.674;4.618;2023-05-10T11:48:12;8.15;;;3.63;;
72649;SDS011;61467;50.674;4.618;2023-05-10T11:51:28;8.93;;;3.13;;
72649;SDS011;61467;50.674;4.618;2023-05-10T11:54:25;9.63;;;3.65;;
72649;SDS011;61467;50.674;4.618;2023-05-10T11:57:34;9.88;;;3.45;;
72649;SDS011;61467;50.674;4.618;2023-05-10T12:33:29;7.83;;;2.87;;
72649;SDS011;61467;50.674;4.618;2023-05-10T12:36:38;8.70;;;3.25;;
72649;SDS011;61467;50.674;4.618;2023-05-10T13:24:21;9.88;;;4.43;;
72649;SDS011;61467;50.674;4.618;2023-05-10T13:33:25;10.13;;;3.97;;
72649;SDS011;61467;50.674;4.618;2023-05-10T13:36:30;10.13;;;3.78;;
72649;SDS011;61467;50.674;4.618;2023-05-10T13:39:41;9.85;;;3.88;;
72649;SDS011;61467;50.674;4.618;2023-05-10T13:42:32;9.75;;;3.53;;
72649;SDS011;61467;50.674;4.618;2023-05-10T13:45:36;9.57;;;3.77;;
72649;SDS011;61467;50.674;4.618;2023-05-10T13:48:44;9.52;;;3.42;;
72649;SDS011;61467;50.674;4.618;2023-05-10T13:51:44;8.13;;;3.80;;
72649;SDS011;61467;50.674;4.618;2023-05-10T14:04:11;8.25;;;3.00;;
72649;SDS011;61467;50.674;4.618;2023-05-10T14:10:20;7.70;;;2.80;;
72649;SDS011;61467;50.674;4.618;2023-05-10T14:13:23;6.95;;;2.28;;
72649;SDS011;61467;50.674;4.618;2023-05-10T14:16:21;6.47;;;2.00;;
72649;SDS011;61467;50.674;4.618;2023-05-10T14:22:40;5.47;;;1.80;;
72649;SDS011;61467;50.674;4.618;2023-05-10T14:25:38;5.55;;;1.67;;
72649;SDS011;61467;50.674;4.618;2023-05-10T14:28:39;5.97;;;1.48;;
72649;SDS011;61467;50.674;4.618;2023-05-10T14:31:30;5.27;;;1.73;;
72649;SDS011;61467;50.674;4.618;2023-05-10T14:34:05;4.13;;;1.27;;
72649;SDS011;61467;50.674;4.618;2023-05-10T14:37:08;5.63;;;2.10;;
72649;SDS011;61467;50.674;4.618;2023-05-10T14:40:11;5.22;;;2.03;;
72649;SDS011;61467;50.674;4.618;2023-05-10T14:43:05;5.30;;;2.00;;
72649;SDS011;61467;50.674;4.618;2023-05-10T14:46:05;5.53;;;2.03;;
72649;SDS011;61467;50.674;4.618;2023-05-10T14:48:57;6.53;;;2.00;;
72649;SDS011;61467;50.674;4.618;2023-05-10T14:51:52;8.55;;;2.22;;
72649;SDS011;61467;50.674;4.618;2023-05-10T14:54:58;6.93;;;2.30;;
72649;SDS011;61467;50.674;4.618;2023-05-10T14:58:01;6.43;;;2.53;;
72649;SDS011;61467;50.674;4.618;2023-05-10T15:04:13;6.80;;;2.67;;
72649;SDS011;61467;50.674;4.618;2023-05-10T15:07:12;6.53;;;2.60;;
72649;SDS011;61467;50.674;4.618;2023-05-10T15:10:03;7.55;;;2.88;;
72649;SDS011;61467;50.674;4.618;2023-05-10T15:12:52;7.75;;;2.97;;
72649;SDS011;61467;50.674;4.618;2023-05-10T15:15:58;8.90;;;2.67;;
72649;SDS011;61467;50.674;4.618;2023-05-10T15:19:07;10.13;;;2.58;;
72649;SDS011;61467;50.674;4.618;2023-05-10T15:22:02;8.02;;;2.60;;
72649;SDS011;61467;50.674;4.618;2023-05-10T15:27:57;7.97;;;2.85;;
72649;SDS011;61467;50.674;4.618;2023-05-10T15:31:04;9.50;;;3.10;;
72649;SDS011;61467;50.674;4.618;2023-05-10T15:37:06;9.82;;;3.90;;
72649;SDS011;61467;50.674;4.618;2023-05-10T15:40:01;13.27;;;4.65;;
72649;SDS011;61467;50.674;4.618;2023-05-10T15:43:07;11.45;;;5.32;;
72649;SDS011;61467;50.674;4.618;2023-05-10T15:49:02;13.75;;;5.20;;
72649;SDS011;61467;50.674;4.618;2023-05-10T15:52:05;15.07;;;6.22;;
72649;SDS011;61467;50.674;4.618;2023-05-10T15:58:16;12.25;;;5.93;;
72649;SDS011;61467;50.674;4.618;2023-05-10T16:01:16;11.93;;;5.53;;
72649;SDS011;61467;50.674;4.618;2023-05-10T16:04:19;12.38;;;5.45;;
72649;SDS011;61467;50.674;4.618;2023-05-10T16:07:31;12.90;;;6.38;;
72649;SDS011;61467;50.674;4.618;2023-05-10T16:10:28;15.30;;;6.22;;
72649;SDS011;61467;50.674;4.618;2023-05-10T16:13:34;13.07;;;6.13;;
72649;SDS011;61467;50.674;4.618;2023-05-10T16:16:40;11.63;;;5.80;;
72649;SDS011;61467;50.674;4.618;2023-05-10T16:19:28;10.68;;;5.00;;
72649;SDS011;61467;50.674;4.618;2023-05-10T16:25:57;12.90;;;5.57;;
72649;SDS011;61467;50.674;4.618;2023-05-10T16:28:49;12.65;;;5.40;;
72649;SDS011;61467;50.674;4.618;2023-05-10T16:31:51;13.43;;;6.27;;
72649;SDS011;61467;50.674;4.618;2023-05-10T16:34:51;11.35;;;5.70;;
72649;SDS011;61467;50.674;4.618;2023-05-10T16:37:58;13.52;;;5.85;;
72649;SDS011;61467;50.674;4.618;2023-05-10T16:44:19;12.27;;;5.13;;
72649;SDS011;61467;50.674;4.618;2023-05-10T16:47:21;10.93;;;4.83;;
72649;SDS011;61467;50.674;4.618;2023-05-10T16:53:18;13.25;;;4.85;;
72649;SDS011;61467;50.674;4.618;2023-05-10T16:56:16;10.15;;;4.55;;
72649;SDS011;61467;50.674;4.618;2023-05-10T16:59:30;10.95;;;5.32;;
72649;SDS011;61467;50.674;4.618;2023-05-10T17:02:30;10.37;;;5.00;;
72649;SDS011;61467;50.674;4.618;2023-05-10T17:05:36;12.77;;;5.47;;
72649;SDS011;61467;50.674;4.618;2023-05-10T17:08:25;10.48;;;5.15;;
72649;SDS011;61467;50.674;4.618;2023-05-10T17:11:40;11.60;;;5.97;;
72649;SDS011;61467;50.674;4.618;2023-05-10T17:14:39;10.65;;;5.10;;
72649;SDS011;61467;50.674;4.618;2023-05-10T17:17:45;15.47;;;5.40;;
72649;SDS011;61467;50.674;4.618;2023-05-10T17:20:41;16.70;;;5.60;;
72649;SDS011;61467;50.674;4.618;2023-05-10T17:23:24;14.73;;;6.20;;
72649;SDS011;61467;50.674;4.618;2023-05-10T17:26:43;11.82;;;6.57;;
72649;SDS011;61467;50.674;4.618;2023-05-10T17:29:42;13.48;;;7.00;;
72649;SDS011;61467;50.674;4.618;2023-05-10T17:32:39;14.07;;;7.10;;
72649;SDS011;61467;50.674;4.618;2023-05-10T17:35:45;14.55;;;7.32;;
72649;SDS011;61467;50.674;4.618;2023-05-10T17:38:49;14.23;;;7.13;;
72649;SDS011;61467;50.674;4.618;2023-05-10T17:41:40;11.90;;;6.03;;
72649;SDS011;61467;50.674;4.618;2023-05-10T17:44:29;12.55;;;6.15;;
72649;SDS011;61467;50.674;4.618;2023-05-10T17:47:33;11.13;;;5.80;;
72649;SDS011;61467;50.674;4.618;2023-05-10T17:53:41;12.63;;;6.07;;
72649;SDS011;61467;50.674;4.618;2023-05-10T17:56:55;10.57;;;5.60;;
72649;SDS011;61467;50.674;4.618;2023-05-10T17:59:54;13.20;;;6.30;;
72649;SDS011;61467;50.674;4.618;2023-05-10T18:02:49;15.17;;;6.50;;
72649;SDS011;61467;50.674;4.618;2023-05-10T18:05:53;16.88;;;7.15;;
72649;SDS011;61467;50.674;4.618;2023-05-10T18:08:42;12.75;;;6.07;;
72649;SDS011;61467;50.674;4.618;2023-05-10T18:11:42;12.80;;;6.80;;
72649;SDS011;61467;50.674;4.618;2023-05-10T18:14:46;12.10;;;6.75;;
72649;SDS011;61467;50.674;4.618;2023-05-10T18:30:41;13.60;;;7.13;;
72649;SDS011;61467;50.674;4.618;2023-05-10T18:37:03;15.45;;;6.93;;
72649;SDS011;61467;50.674;4.618;2023-05-10T18:40:12;12.80;;;7.40;;
72649;SDS011;61467;50.674;4.618;2023-05-10T18:46:43;13.38;;;7.15;;
72649;SDS011;61467;50.674;4.618;2023-05-10T18:49:28;15.00;;;7.50;;
72649;SDS011;61467;50.674;4.618;2023-05-10T18:52:23;19.42;;;7.97;;
72649;SDS011;61467;50.674;4.618;2023-05-10T18:55:20;17.38;;;8.48;;
72649;SDS011;61467;50.674;4.618;2023-05-10T18:58:24;15.00;;;7.82;;
72649;SDS011;61467;50.674;4.618;2023-05-10T19:01:21;19.48;;;8.38;;
72649;SDS011;61467;50.674;4.618;2023-05-10T19:04:24;18.60;;;8.57;;
72649;SDS011;61467;50.674;4.618;2023-05-10T19:10:21;16.40;;;7.50;;
72649;SDS011;61467;50.674;4.618;2023-05-10T19:13:13;17.75;;;8.65;;
72649;SDS011;61467;50.674;4.618;2023-05-10T19:16:18;17.08;;;8.55;;
72649;SDS011;61467;50.674;4.618;2023-05-10T19:22:10;15.45;;;8.52;;
72649;SDS011;61467;50.674;4.618;2023-05-10T19:25:22;16.08;;;8.30;;
72649;SDS011;61467;50.674;4.618;2023-05-10T19:31:42;15.95;;;9.32;;
72649;SDS011;61467;50.674;4.618;2023-05-10T19:34:24;14.27;;;8.83;;
72649;SDS011;61467;50.674;4.618;2023-05-10T19:37:37;15.55;;;8.57;;
72649;SDS011;61467;50.674;4.618;2023-05-10T19:43:43;13.80;;;6.93;;
72649;SDS011;61467;50.674;4.618;2023-05-10T19:46:50;15.02;;;7.15;;
72649;SDS011;61467;50.674;4.618;2023-05-10T19:49:37;14.00;;;7.67;;
72649;SDS011;61467;50.674;4.618;2023-05-10T19:52:40;18.08;;;8.35;;
72649;SDS011;61467;50.674;4.618;2023-05-10T19:55:38;16.85;;;8.75;;
72649;SDS011;61467;50.674;4.618;2023-05-10T19:58:33;18.40;;;8.25;;
72649;SDS011;61467;50.674;4.618;2023-05-10T20:01:27;16.80;;;8.18;;
72649;SDS011;61467;50.674;4.618;2023-05-10T20:04:24;14.57;;;8.23;;
72649;SDS011;61467;50.674;4.618;2023-05-10T20:07:28;19.13;;;8.50;;
72649;SDS011;61467;50.674;4.618;2023-05-10T20:10:31;16.38;;;8.40;;
72649;SDS011;61467;50.674;4.618;2023-05-10T20:13:12;16.05;;;8.10;;
72649;SDS011;61467;50.674;4.618;2023-05-10T20:16:16;15.00;;;8.45;;
72649;SDS011;61467;50.674;4.618;2023-05-10T20:19:22;16.17;;;8.77;;
72649;SDS011;61467;50.674;4.618;2023-05-10T20:28:34;15.90;;;8.82;;
72649;SDS011;61467;50.674;4.618;2023-05-10T20:31:35;17.58;;;8.88;;
72649;SDS011;61467;50.674;4.618;2023-05-10T20:34:36;18.37;;;9.33;;
72649;SDS011;61467;50.674;4.618;2023-05-10T20:37:42;18.85;;;9.52;;
72649;SDS011;61467;50.674;4.618;2023-05-10T20:47:06;20.73;;;10.88;;
72649;SDS011;61467;50.674;4.618;2023-05-10T20:50:05;17.90;;;9.47;;
72649;SDS011;61467;50.674;4.618;2023-05-10T20:53:10;15.45;;;8.82;;
72649;SDS011;61467;50.674;4.618;2023-05-10T20:56:16;17.02;;;7.78;;
72649;SDS011;61467;50.674;4.618;2023-05-10T20:59:08;14.85;;;7.43;;
72649;SDS011;61467;50.674;4.618;2023-05-10T21:02:18;15.10;;;7.60;;
72649;SDS011;61467;50.674;4.618;2023-05-10T21:05:27;15.67;;;7.67;;
72649;SDS011;61467;50.674;4.618;2023-05-10T21:08:36;17.42;;;8.27;;
72649;SDS011;61467;50.674;4.618;2023-05-10T21:11:34;16.50;;;7.50;;
72649;SDS011;61467;50.674;4.618;2023-05-10T22:20:50;10.05;;;5.03;;
72649;SDS011;61467;50.674;4.618;2023-05-10T22:23:48;11.05;;;5.47;;
72649;SDS011;61467;50.674;4.618;2023-05-10T22:26:52;15.10;;;6.03;;
72649;SDS011;61467;50.674;4.618;2023-05-10T22:29:51;11.75;;;5.68;;
72649;SDS011;61467;50.674;4.618;2023-05-10T22:33:03;12.17;;;5.73;;
72649;SDS011;61467;50.674;4.618;2023-05-10T22:36:17;14.35;;;6.22;;
72649;SDS011;61467;50.674;4.618;2023-05-10T22:42:20;11.35;;;5.90;;
72649;SDS011;61467;50.674;4.618;2023-05-10T22:45:17;12.07;;;5.90;;
72649;SDS011;61467;50.674;4.618;2023-05-10T22:48:10;11.87;;;6.63;;
72649;SDS011;61467;50.674;4.618;2023-05-10T22:51:08;13.93;;;6.05;;
72649;SDS011;61467;50.674;4.618;2023-05-10T22:57:13;11.95;;;5.90;;
72649;SDS011;61467;50.674;4.618;2023-05-10T23:00:19;12.05;;;5.88;;
72649;SDS011;61467;50.674;4.618;2023-05-10T23:03:17;13.37;;;6.20;;
72649;SDS011;61467;50.674;4.618;2023-05-10T23:06:26;11.38;;;5.88;;
72649;SDS011;61467;50.674;4.618;2023-05-10T23:09:18;11.63;;;5.97;;
72649;SDS011;61467;50.674;4.618;2023-05-10T23:12:30;14.18;;;6.20;;
72649;SDS011;61467;50.674;4.618;2023-05-10T23:18:33;15.80;;;6.33;;
72649;SDS011;61467;50.674;4.618;2023-05-10T23:28:14;12.40;;;6.15;;
